createdAt,value
2019-01-31T00:12:30.314Z,87.33
2019-01-31T00:18:12.601Z,87.78
2019-01-31T00:23:55.140Z,87.21
2019-01-31T00:35:30.182Z,87.00
2019-01-31T00:41:12.470Z,87.86
2019-01-31T00:46:54.812Z,87.46
2019-01-31T00:58:30.842Z,88.96
2019-01-31T01:04:13.192Z,89.84
2019-01-31T01:09:26.337Z,90.46
2019-01-31T01:21:01.893Z,88.70
2019-01-31T01:32:35.939Z,90.56
2019-01-31T01:38:18.376Z,88.81
2019-01-31T01:44:01.603Z,88.83
2019-01-31T01:55:38.609Z,88.90
2019-01-31T02:07:22.846Z,90.45
2019-01-31T02:13:05.288Z,89.14
2019-01-31T02:18:31.942Z,88.27
2019-01-31T02:24:14.228Z,88.70
2019-01-31T02:29:49.528Z,89.58
2019-01-31T02:35:31.918Z,89.03
2019-01-31T02:47:17.061Z,89.46
2019-01-31T02:58:32.766Z,89.20
2019-01-31T03:04:15.093Z,90.18
2019-01-31T03:09:57.454Z,90.76
2019-01-31T03:15:43.614Z,90.13
2019-01-31T03:27:27.381Z,91.23
2019-01-31T03:33:09.674Z,92.59
2019-01-31T03:39:04.804Z,93.32
2019-01-31T03:44:47.211Z,93.22
2019-01-31T03:50:33.945Z,93.18
2019-01-31T03:56:17.846Z,93.00
2019-01-31T04:02:10.881Z,93.17
2019-01-31T04:07:34.134Z,93.70
2019-01-31T04:17:47.810Z,93.97
2019-01-31T04:28:01.969Z,93.79
2019-01-31T04:43:26.093Z,93.60
2019-01-31T04:48:49.324Z,93.71
2019-01-31T04:54:12.636Z,93.89
2019-01-31T04:59:16.894Z,94.13
2019-01-31T05:04:21.166Z,94.38
2019-01-31T05:25:34.811Z,94.43
2019-01-31T05:30:58.127Z,94.27
2019-01-31T05:36:21.347Z,94.28
2019-01-31T05:41:26.195Z,94.39
2019-01-31T05:46:30.426Z,94.46
2019-01-31T06:01:54.272Z,94.43
2019-01-31T06:06:58.542Z,94.18
2019-01-31T06:12:02.817Z,94.20
2019-01-31T06:17:26.116Z,93.97
2019-01-31T06:27:53.580Z,93.76
2019-01-31T06:32:58.141Z,93.31
2019-01-31T06:38:02.375Z,93.38
2019-01-31T06:43:06.633Z,93.45
2019-01-31T06:48:10.857Z,93.96
2019-01-31T06:58:24.885Z,94.28
2019-01-31T07:03:29.132Z,94.02
2019-01-31T07:13:43.366Z,93.98
2019-01-31T07:34:17.230Z,93.31
2019-01-31T07:39:21.462Z,93.46
2019-01-31T07:50:14.660Z,93.02
2019-01-31T07:55:58.463Z,92.54
2019-01-31T08:11:22.900Z,92.49
2019-01-31T08:16:28.131Z,92.71
2019-01-31T08:21:32.434Z,92.60
2019-01-31T08:42:26.131Z,91.98
2019-01-31T08:47:49.479Z,91.82
2019-01-31T08:53:12.786Z,91.60
2019-01-31T09:03:26.540Z,91.34
2019-01-31T09:08:49.866Z,90.90
2019-01-31T09:13:54.111Z,90.82
2019-01-31T09:19:17.371Z,90.95
2019-01-31T09:25:14.273Z,91.13
2019-01-31T09:30:56.605Z,91.17
2019-01-31T09:36:38.987Z,90.90
2019-01-31T09:54:15.874Z,91.45
2019-01-31T09:59:58.153Z,91.61
2019-01-31T10:05:40.437Z,91.47
2019-01-31T10:11:22.788Z,91.33
2019-01-31T10:17:05.145Z,91.85
2019-01-31T10:28:39.825Z,91.46
2019-01-31T10:34:28.488Z,91.13
2019-01-31T10:40:10.760Z,90.30
2019-01-31T10:45:53.050Z,90.28
2019-01-31T10:51:35.438Z,90.26
2019-01-31T10:57:17.745Z,89.85
2019-01-31T11:03:00.028Z,89.96
2019-01-31T11:14:39.973Z,89.67
2019-01-31T11:20:22.413Z,89.92
2019-01-31T11:26:10.917Z,89.97
2019-01-31T11:31:58.684Z,89.79
2019-01-31T11:37:40.955Z,90.10
2019-01-31T11:43:12.039Z,88.25
2019-01-31T11:48:55.267Z,85.33
2019-01-31T11:54:51.258Z,84.61
2019-01-31T11:59:58.957Z,81.36
2019-01-31T12:26:17.564Z,85.44
2019-01-31T12:31:21.789Z,84.42
2019-01-31T12:46:45.737Z,85.28
2019-01-31T12:57:37.783Z,86.16
2019-01-31T13:13:46.061Z,87.08
2019-01-31T13:23:58.513Z,87.99
2019-01-31T13:29:03.052Z,87.81
2019-01-31T13:34:18.913Z,87.91
2019-01-31T13:44:38.673Z,87.48
2019-01-31T13:49:43.301Z,87.34
2019-01-31T13:54:47.546Z,86.57
2019-01-31T14:10:51.747Z,87.06
2019-01-31T14:15:55.979Z,87.43
2019-01-31T14:21:00.215Z,87.36
2019-01-31T14:31:46.965Z,87.63
2019-01-31T14:42:40.183Z,88.03
2019-01-31T14:47:44.816Z,87.63
2019-01-31T14:53:28.929Z,88.25
2019-01-31T14:58:33.541Z,88.31
2019-01-31T15:03:37.820Z,88.61
2019-01-31T15:08:44.105Z,88.93
2019-01-31T15:13:48.766Z,88.87
2019-01-31T15:18:53.941Z,89.07
2019-01-31T15:24:17.264Z,88.96
2019-01-31T15:29:21.502Z,89.07
2019-01-31T15:34:37.939Z,88.79
2019-01-31T15:45:11.293Z,88.91
2019-01-31T15:50:55.436Z,88.82
2019-01-31T15:55:59.743Z,89.22
2019-01-31T16:01:23.047Z,89.43
2019-01-31T16:07:06.649Z,89.53
2019-01-31T16:12:10.891Z,89.94
2019-01-31T16:17:15.172Z,89.82
2019-01-31T16:22:38.473Z,89.94
2019-01-31T16:28:01.767Z,90.13
2019-01-31T16:33:45.820Z,90.16
2019-01-31T16:39:09.186Z,90.06
2019-01-31T16:44:32.774Z,90.52
2019-01-31T16:49:37.086Z,90.40
2019-01-31T17:00:52.053Z,90.33
2019-01-31T17:05:56.322Z,90.69
2019-01-31T17:16:29.996Z,90.04
2019-01-31T17:21:53.301Z,89.16
2019-01-31T17:27:16.676Z,88.96
2019-01-31T17:48:50.921Z,91.38
2019-01-31T17:53:55.557Z,91.54
2019-01-31T17:58:59.789Z,91.41
2019-01-31T18:09:33.933Z,91.18
2019-01-31T18:19:48.676Z,90.78
2019-01-31T18:24:53.026Z,90.88
2019-01-31T18:30:16.453Z,90.41
2019-01-31T18:35:39.760Z,90.25
2019-01-31T18:46:13.107Z,90.59
2019-01-31T18:51:17.644Z,90.92
2019-01-31T18:56:40.885Z,90.91
2019-01-31T19:01:45.669Z,90.50
2019-01-31T19:07:08.943Z,90.42
2019-01-31T19:12:32.236Z,90.38
2019-01-31T19:33:45.893Z,90.94
2019-01-31T19:38:50.175Z,90.54
2019-01-31T19:44:06.168Z,91.36
2019-01-31T19:54:20.401Z,92.02
2019-01-31T19:59:43.715Z,92.46
2019-01-31T20:04:48.003Z,93.09
2019-01-31T20:10:11.926Z,93.21
2019-01-31T20:15:55.662Z,92.97
2019-01-31T20:21:19.049Z,92.54
2019-01-31T20:26:23.695Z,92.29
2019-01-31T20:31:27.943Z,91.79
2019-01-31T20:42:01.803Z,91.47
2019-01-31T20:47:25.035Z,91.51
2019-01-31T20:52:48.344Z,91.64
2019-01-31T20:57:52.970Z,91.64
2019-01-31T21:08:45.575Z,91.59
2019-01-31T21:19:18.847Z,91.86
2019-01-31T21:24:23.242Z,91.87
2019-01-31T21:29:46.554Z,91.76
2019-01-31T21:35:09.807Z,91.90
2019-01-31T21:45:44.483Z,91.95
2019-01-31T21:51:07.634Z,92.00
2019-01-31T22:07:09.407Z,91.53
2019-01-31T22:12:14.359Z,91.27
2019-01-31T22:23:28.587Z,90.94
2019-01-31T22:28:32.834Z,90.81
2019-01-31T22:33:39.374Z,90.60
2019-01-31T22:44:33.480Z,90.52
2019-01-31T22:49:37.781Z,90.15
2019-01-31T22:55:21.772Z,89.89
2019-01-31T23:01:07.406Z,89.61
2019-01-31T23:06:52.491Z,89.64
2019-01-31T23:22:36.873Z,88.04
2019-01-31T23:27:41.118Z,88.22
2019-01-31T23:33:04.623Z,88.53
2019-01-31T23:38:08.864Z,88.89
2019-01-31T23:48:23.114Z,88.59
2019-01-31T23:58:39.884Z,88.74
